Time;durP1;ratioP1;P1;durP2;ratioP2;P2;SDS_P1;SDS_P2;PMS_P1;PMS_P2;Temp;Humidity;BMP_temperature;BMP_pressure;BME280_temperature;BME280_humidity;BME280_pressure;Samples;Min_cycle;Max_cycle;Signal;HPM_P1;HPM_P2
2024/02/03 00:01:08;;;;;;;60.70;55.85;;;;;;;;;;4199623;28;20106;-70
2024/02/03 00:03:12;;;;;;;59.25;54.33;;;;;;;;;;4199514;28;20409;-70
2024/02/03 00:05:14;;;;;;;55.60;51.30;;;;;;;;;;4199675;28;20051;-70
2024/02/03 00:07:16;;;;;;;55.60;50.95;;;;;;;;;;4198619;28;20423;-70
2024/02/03 00:09:18;;;;;;;58.40;53.38;;;;;;;;;;4201346;28;20424;-70
2024/02/03 00:11:19;;;;;;;63.30;57.20;;;;;;;;;;4209724;28;20044;-70
2024/02/03 00:13:22;;;;;;;61.63;55.30;;;;;;;;;;4200618;28;20056;-71
2024/02/03 00:15:27;;;;;;;59.95;54.50;;;;;;;;;;4198822;28;20052;-70
2024/02/03 00:17:28;;;;;;;53.17;49.28;;;;;;;;;;4199487;28;20501;-71
2024/02/03 00:19:30;;;;;;;54.40;50.33;;;;;;;;;;4198895;28;20068;-71
2024/02/03 00:21:32;;;;;;;49.63;45.97;;;;;;;;;;4216410;28;20492;-71
2024/02/03 00:23:34;;;;;;;52.03;48.33;;;;;;;;;;4216295;28;20567;-71
2024/02/03 00:25:36;;;;;;;49.43;45.90;;;;;;;;;;4216009;28;20086;-70
2024/02/03 00:27:39;;;;;;;45.00;42.10;;;;;;;;;;4216268;28;20032;-71
2024/02/03 00:29:40;;;;;;;48.95;45.80;;;;;;;;;;4215835;28;20800;-71
2024/02/03 00:31:42;;;;;;;52.38;48.22;;;;;;;;;;4215840;28;20040;-70
2024/02/03 00:33:43;;;;;;;54.38;49.55;;;;;;;;;;4215869;28;20408;-71
2024/02/03 00:35:45;;;;;;;48.55;44.75;;;;;;;;;;4215035;28;20047;-71
2024/02/03 00:37:47;;;;;;;40.50;38.05;;;;;;;;;;4216047;28;20037;-71
2024/02/03 00:39:48;;;;;;;46.47;43.78;;;;;;;;;;4215508;28;20389;-71
2024/02/03 00:41:50;;;;;;;46.03;43.28;;;;;;;;;;4215817;28;20064;-71
2024/02/03 00:43:52;;;;;;;45.08;42.40;;;;;;;;;;4215798;28;20047;-71
2024/02/03 00:45:53;;;;;;;41.08;38.70;;;;;;;;;;4214612;28;20036;-71
2024/02/03 00:47:55;;;;;;;46.35;43.85;;;;;;;;;;4215707;28;20446;-71
2024/02/03 00:49:57;;;;;;;47.28;44.30;;;;;;;;;;4215351;28;20530;-71
2024/02/03 00:51:59;;;;;;;50.72;46.97;;;;;;;;;;4213123;28;20051;-71
2024/02/03 00:54:01;;;;;;;51.13;47.23;;;;;;;;;;4203378;28;20036;-71
2024/02/03 00:56:05;;;;;;;50.83;46.85;;;;;;;;;;4215816;28;20051;-71
2024/02/03 00:58:06;;;;;;;51.72;48.00;;;;;;;;;;4215318;28;20071;-71
2024/02/03 01:00:09;;;;;;;51.85;47.83;;;;;;;;;;4216072;28;20101;-71
2024/02/03 01:02:11;;;;;;;50.72;47.25;;;;;;;;;;4215699;28;20044;-71
2024/02/03 01:04:13;;;;;;;51.78;47.67;;;;;;;;;;4215969;28;20047;-71
2024/02/03 01:06:15;;;;;;;49.83;45.95;;;;;;;;;;4215636;28;20044;-71
2024/02/03 01:08:18;;;;;;;50.60;47.00;;;;;;;;;;4215244;28;20482;-71
2024/02/03 01:10:19;;;;;;;;;;;;;;;;;;4215814;28;20067;-70
2024/02/03 01:12:21;;;;;;;51.25;47.95;;;;;;;;;;4215349;28;19985;-70
2024/02/03 01:14:23;;;;;;;50.10;46.50;;;;;;;;;;4215222;28;20066;-70
2024/02/03 01:16:26;;;;;;;48.10;44.87;;;;;;;;;;4206592;28;20380;-71
2024/02/03 01:18:27;;;;;;;;;;;;;;;;;;4214519;28;20454;-70
2024/02/03 01:20:32;;;;;;;46.60;43.70;;;;;;;;;;4214971;28;20603;-71
2024/02/03 01:22:33;;;;;;;44.97;42.25;;;;;;;;;;4215184;28;20052;-71
2024/02/03 01:24:36;;;;;;;46.95;43.88;;;;;;;;;;4215086;28;20052;-71
2024/02/03 01:26:37;;;;;;;49.20;45.97;;;;;;;;;;4214995;28;20050;-71
2024/02/03 01:28:39;;;;;;;45.90;42.53;;;;;;;;;;4214019;28;20067;-71
2024/02/03 01:30:41;;;;;;;50.07;46.50;;;;;;;;;;4215032;28;20502;-71
2024/02/03 01:32:43;;;;;;;45.05;41.88;;;;;;;;;;4215246;28;20062;-71
2024/02/03 01:34:45;;;;;;;52.05;48.17;;;;;;;;;;4215057;28;20044;-71
2024/02/03 01:36:47;;;;;;;54.20;50.07;;;;;;;;;;4215265;28;20038;-71
2024/02/03 01:38:49;;;;;;;54.53;50.33;;;;;;;;;;4214635;28;20131;-71
2024/02/03 01:40:50;;;;;;;55.50;50.92;;;;;;;;;;4214920;28;20107;-71
2024/02/03 01:42:57;;;;;;;58.72;54.42;;;;;;;;;;4214731;28;20454;-71
2024/02/03 01:44:58;;;;;;;59.10;53.92;;;;;;;;;;4198271;28;20051;-71
2024/02/03 01:47:00;;;;;;;58.60;53.67;;;;;;;;;;4198150;28;20051;-71
2024/02/03 01:49:02;;;;;;;52.85;49.10;;;;;;;;;;4197927;28;20123;-70
2024/02/03 01:51:04;;;;;;;54.08;49.63;;;;;;;;;;4210543;28;20043;-70
2024/02/03 01:53:06;;;;;;;46.63;43.80;;;;;;;;;;4213185;28;20043;-70
2024/02/03 01:55:08;;;;;;;43.20;40.50;;;;;;;;;;4200815;28;20120;-71
2024/02/03 01:57:10;;;;;;;42.80;40.00;;;;;;;;;;4199893;28;20040;-71
2024/02/03 01:59:12;;;;;;;54.45;49.95;;;;;;;;;;4213262;28;20500;-71
2024/02/03 02:01:15;;;;;;;53.28;48.97;;;;;;;;;;4214527;28;20085;-71
2024/02/03 02:03:17;;;;;;;57.28;52.95;;;;;;;;;;4214469;28;20412;-71
2024/02/03 02:05:19;;;;;;;51.38;47.92;;;;;;;;;;4213445;28;20127;-70
2024/02/03 02:07:21;;;;;;;50.93;46.97;;;;;;;;;;4214491;28;20040;-71
2024/02/03 02:09:23;;;;;;;47.50;44.07;;;;;;;;;;4214548;28;20044;-71
2024/02/03 02:11:25;;;;;;;49.80;46.30;;;;;;;;;;4209871;28;20651;-71
2024/02/03 02:13:27;;;;;;;44.38;42.03;;;;;;;;;;4210382;28;20078;-68
2024/02/03 02:15:29;;;;;;;43.53;41.20;;;;;;;;;;4214404;28;20068;-68
2024/02/03 02:17:36;;;;;;;38.22;36.42;;;;;;;;;;4214293;28;20360;-68
2024/02/03 02:19:38;;;;;;;44.47;41.95;;;;;;;;;;4214452;28;20442;-68
2024/02/03 02:21:40;;;;;;;50.90;47.67;;;;;;;;;;4214302;28;20161;-68
2024/02/03 02:23:42;;;;;;;48.75;45.65;;;;;;;;;;4212911;28;20339;-68
2024/02/03 02:25:47;;;;;;;49.78;46.40;;;;;;;;;;4214068;28;20044;-68
2024/02/03 02:27:48;;;;;;;52.47;48.85;;;;;;;;;;4214366;28;20048;-68
2024/02/03 02:29:55;;;;;;;49.53;46.08;;;;;;;;;;4212701;28;20056;-68
2024/02/03 02:31:56;;;;;;;48.15;44.75;;;;;;;;;;4214376;28;20047;-68
2024/02/03 02:33:58;;;;;;;50.23;46.93;;;;;;;;;;4213082;28;20039;-68
2024/02/03 02:36:00;;;;;;;49.40;45.70;;;;;;;;;;4212605;28;20470;-68
2024/02/03 02:38:03;;;;;;;50.33;47.00;;;;;;;;;;4214213;28;20036;-68
2024/02/03 02:40:05;;;;;;;55.28;51.03;;;;;;;;;;4212374;28;20172;-68
2024/02/03 02:42:10;;;;;;;50.80;47.20;;;;;;;;;;4213978;28;20036;-69
2024/02/03 02:44:11;;;;;;;55.38;51.58;;;;;;;;;;4214182;28;20036;-68
2024/02/03 02:46:16;;;;;;;50.27;46.47;;;;;;;;;;4208358;28;22115;-68
2024/02/03 02:48:17;;;;;;;50.15;46.67;;;;;;;;;;4196069;28;20374;-68
2024/02/03 02:50:20;;;;;;;48.53;45.33;;;;;;;;;;4196958;28;20415;-68
2024/02/03 02:52:21;;;;;;;54.30;50.33;;;;;;;;;;4202894;28;20032;-68
2024/02/03 02:54:23;;;;;;;53.53;49.42;;;;;;;;;;4213775;28;20282;-68
2024/02/03 02:56:25;;;;;;;51.67;47.93;;;;;;;;;;4213959;28;20066;-68
2024/02/03 02:58:26;;;;;;;56.50;52.27;;;;;;;;;;4213597;28;20351;-68
2024/02/03 03:00:28;;;;;;;56.20;51.90;;;;;;;;;;4212511;28;20135;-68
2024/02/03 03:02:30;;;;;;;50.83;47.60;;;;;;;;;;4213108;28;20058;-68
2024/02/03 03:04:33;;;;;;;48.88;45.55;;;;;;;;;;4214138;28;20488;-68
2024/02/03 03:06:35;;;;;;;;;;;;;;;;;;4213003;28;20076;-69
2024/02/03 03:08:36;;;;;;;48.88;45.78;;;;;;;;;;4200432;28;19921;-68
2024/02/03 03:10:38;;;;;;;47.92;44.75;;;;;;;;;;4197110;28;20044;-68
2024/02/03 03:12:40;;;;;;;45.60;42.60;;;;;;;;;;4197046;28;20408;-69
2024/02/03 03:14:41;;;;;;;51.17;48.22;;;;;;;;;;4197076;28;20287;-69
2024/02/03 03:16:43;;;;;;;48.60;45.63;;;;;;;;;;4197154;28;20041;-68
2024/02/03 03:18:45;;;;;;;46.00;43.23;;;;;;;;;;4196914;28;20440;-69
2024/02/03 03:20:47;;;;;;;51.75;48.50;;;;;;;;;;4179270;28;20319;-68
2024/02/03 03:22:48;;;;;;;53.40;49.83;;;;;;;;;;4212416;28;20078;-68
2024/02/03 03:24:50;;;;;;;51.20;47.37;;;;;;;;;;4197210;28;20450;-69
2024/02/03 03:26:52;;;;;;;49.95;46.38;;;;;;;;;;4196825;28;20572;-68
2024/02/03 03:28:54;;;;;;;52.28;48.60;;;;;;;;;;4203139;28;20098;-68
2024/02/03 03:30:55;;;;;;;47.33;44.10;;;;;;;;;;4213645;28;20511;-68
2024/02/03 03:32:57;;;;;;;46.88;43.78;;;;;;;;;;4212403;28;20090;-69
2024/02/03 03:34:59;;;;;;;51.83;48.83;;;;;;;;;;4213547;28;20449;-68
2024/02/03 03:37:01;;;;;;;47.83;44.72;;;;;;;;;;4213651;28;20746;-68
2024/02/03 03:39:03;;;;;;;53.17;49.40;;;;;;;;;;4213361;28;20051;-68
2024/02/03 03:41:04;;;;;;;56.65;52.05;;;;;;;;;;4213832;28;20764;-68
2024/02/03 03:43:06;;;;;;;51.10;47.13;;;;;;;;;;4204453;28;20045;-68
2024/02/03 03:45:08;;;;;;;50.13;46.92;;;;;;;;;;4196981;28;21275;-68
2024/02/03 03:47:14;;;;;;;49.67;46.53;;;;;;;;;;4196838;28;20036;-68
2024/02/03 03:49:16;;;;;;;45.05;42.20;;;;;;;;;;4196569;28;20071;-69
2024/02/03 03:51:18;;;;;;;51.22;47.92;;;;;;;;;;4196697;28;20076;-69
2024/02/03 03:53:20;;;;;;;50.00;46.35;;;;;;;;;;4210577;28;20434;-69
2024/02/03 03:55:22;;;;;;;50.35;46.88;;;;;;;;;;4197358;28;20032;-68
2024/02/03 03:57:23;;;;;;;54.97;51.40;;;;;;;;;;4200650;28;20047;-68
2024/02/03 03:59:25;;;;;;;50.03;46.47;;;;;;;;;;4213399;28;20036;-69
2024/02/03 04:01:27;;;;;;;52.63;49.03;;;;;;;;;;4213707;28;20044;-70
2024/02/03 04:03:29;;;;;;;52.83;49.10;;;;;;;;;;4212640;28;20400;-69
2024/02/03 04:05:31;;;;;;;49.92;47.13;;;;;;;;;;4205724;28;20075;-69
2024/02/03 04:07:34;;;;;;;47.35;44.50;;;;;;;;;;4213601;28;20071;-68
2024/02/03 04:09:36;;;;;;;49.33;46.07;;;;;;;;;;4213146;28;20415;-69
2024/02/03 04:11:38;;;;;;;50.73;47.33;;;;;;;;;;4214880;28;20737;-68
2024/02/03 04:13:40;;;;;;;50.22;46.80;;;;;;;;;;4215215;28;20286;-69
2024/02/03 04:15:41;;;;;;;54.63;50.45;;;;;;;;;;4214837;28;20400;-69
2024/02/03 04:17:44;;;;;;;51.55;48.03;;;;;;;;;;4216174;28;20119;-69
2024/02/03 04:19:45;;;;;;;54.38;51.03;;;;;;;;;;4216119;28;20044;-69
2024/02/03 04:21:47;;;;;;;52.80;49.53;;;;;;;;;;4216219;28;20044;-69
2024/02/03 04:23:49;;;;;;;50.00;46.90;;;;;;;;;;4216223;28;20075;-69
2024/02/03 04:25:51;;;;;;;49.50;46.70;;;;;;;;;;4216280;28;20567;-69
2024/02/03 04:27:52;;;;;;;48.73;46.00;;;;;;;;;;4214846;28;20304;-68
2024/02/03 04:29:54;;;;;;;48.67;45.97;;;;;;;;;;4210256;28;20377;-69
2024/02/03 04:31:56;;;;;;;50.85;47.67;;;;;;;;;;4199115;28;20558;-68
2024/02/03 04:34:01;;;;;;;57.30;52.77;;;;;;;;;;4199550;28;20086;-69
2024/02/03 04:36:04;;;;;;;55.08;51.13;;;;;;;;;;4181465;28;20135;-69
2024/02/03 04:38:06;;;;;;;;;;;;;;;;;;4199820;28;20492;-70
2024/02/03 04:40:08;;;;;;;47.95;45.65;;;;;;;;;;4214184;28;19953;-69
2024/02/03 04:42:10;;;;;;;43.72;41.55;;;;;;;;;;4214799;28;20032;-69
2024/02/03 04:44:11;;;;;;;49.60;47.20;;;;;;;;;;4216182;28;20071;-70
2024/02/03 04:46:13;;;;;;;48.40;45.78;;;;;;;;;;4215771;28;20303;-69
2024/02/03 04:48:15;;;;;;;47.63;44.87;;;;;;;;;;4214778;28;20485;-69
2024/02/03 04:50:17;;;;;;;49.25;45.95;;;;;;;;;;4214446;28;20423;-69
2024/02/03 04:52:19;;;;;;;52.13;48.92;;;;;;;;;;4215681;28;20511;-69
2024/02/03 04:54:23;;;;;;;50.90;47.35;;;;;;;;;;4208553;28;20043;-69
2024/02/03 04:56:25;;;;;;;48.63;45.03;;;;;;;;;;4199011;28;20044;-69
2024/02/03 04:58:27;;;;;;;49.05;45.60;;;;;;;;;;4211630;28;20377;-69
2024/02/03 05:00:29;;;;;;;49.67;46.53;;;;;;;;;;4208734;28;20033;-69
2024/02/03 05:02:30;;;;;;;46.50;43.70;;;;;;;;;;4213989;28;20032;-69
2024/02/03 05:04:32;;;;;;;46.30;43.33;;;;;;;;;;4215514;28;20044;-69
2024/02/03 05:06:34;;;;;;;44.35;42.05;;;;;;;;;;4215517;28;20267;-70
2024/02/03 05:08:36;;;;;;;48.47;45.75;;;;;;;;;;4215622;28;20547;-69
2024/02/03 05:10:38;;;;;;;49.30;46.55;;;;;;;;;;4201587;28;20086;-70
2024/02/03 05:12:40;;;;;;;49.20;46.47;;;;;;;;;;4215592;28;20395;-69
2024/02/03 05:14:44;;;;;;;46.40;43.92;;;;;;;;;;4201438;28;20096;-69
2024/02/03 05:16:46;;;;;;;47.03;44.55;;;;;;;;;;4197462;28;20119;-69
2024/02/03 05:18:47;;;;;;;47.40;44.23;;;;;;;;;;4198559;28;20046;-69
2024/02/03 05:20:49;;;;;;;50.28;46.65;;;;;;;;;;4198561;28;20048;-69
2024/02/03 05:22:51;;;;;;;47.70;44.70;;;;;;;;;;4198207;28;20063;-69
2024/02/03 05:24:53;;;;;;;51.83;48.63;;;;;;;;;;4197485;28;20044;-69
2024/02/03 05:26:55;;;;;;;52.33;48.35;;;;;;;;;;4198468;28;20055;-69
2024/02/03 05:28:59;;;;;;;52.13;48.88;;;;;;;;;;4198434;28;20052;-69
2024/02/03 05:31:01;;;;;;;50.30;46.83;;;;;;;;;;4198362;28;20047;-69
2024/02/03 05:33:03;;;;;;;52.85;49.90;;;;;;;;;;4198242;28;20044;-69
2024/02/03 05:35:05;;;;;;;50.28;46.97;;;;;;;;;;4201467;28;20067;-69
2024/02/03 05:37:06;;;;;;;49.05;46.03;;;;;;;;;;4213705;28;20040;-69
2024/02/03 05:39:08;;;;;;;47.42;44.60;;;;;;;;;;4214802;28;20123;-69
2024/02/03 05:41:10;;;;;;;48.53;45.65;;;;;;;;;;4215012;28;20501;-68
2024/02/03 05:43:12;;;;;;;47.80;45.05;;;;;;;;;;4214976;28;20082;-68
2024/02/03 05:45:14;;;;;;;45.00;42.50;;;;;;;;;;4215399;28;20036;-72
2024/02/03 05:47:16;;;;;;;49.95;47.45;;;;;;;;;;4215139;28;20067;-71
2024/02/03 05:49:17;;;;;;;47.97;45.07;;;;;;;;;;4214910;28;20032;-71
2024/02/03 05:51:20;;;;;;;48.45;45.88;;;;;;;;;;4215034;28;20289;-71
2024/02/03 05:53:22;;;;;;;48.85;46.15;;;;;;;;;;4214667;28;20064;-71
2024/02/03 05:55:24;;;;;;;44.03;41.80;;;;;;;;;;4198298;28;20515;-71
2024/02/03 05:57:26;;;;;;;51.13;48.17;;;;;;;;;;4197790;28;20062;-71
2024/02/03 05:59:28;;;;;;;48.30;45.45;;;;;;;;;;4197692;28;20505;-71
2024/02/03 06:01:41;;;;;;;48.40;45.55;;;;;;;;;;4197858;28;20047;-71
2024/02/03 06:03:43;;;;;;;47.63;44.78;;;;;;;;;;4198070;28;20037;-71
2024/02/03 06:05:45;;;;;;;47.90;45.03;;;;;;;;;;4197832;28;20040;-71
2024/02/03 06:08:07;;;;;;;59.95;55.05;;;;;;;;;;4198025;28;20051;-71
2024/02/03 06:10:09;;;;;;;69.47;63.25;;;;;;;;;;4197759;28;20044;-71
2024/02/03 06:12:11;;;;;;;58.92;53.92;;;;;;;;;;4196151;28;20118;-71
2024/02/03 06:14:12;;;;;;;61.10;55.70;;;;;;;;;;4206471;28;20032;-71
2024/02/03 06:16:19;;;;;;;52.63;49.13;;;;;;;;;;4209593;28;20040;-72
2024/02/03 06:18:20;;;;;;;52.15;48.85;;;;;;;;;;4198120;28;20408;-62
2024/02/03 06:20:22;;;;;;;56.83;53.40;;;;;;;;;;4214454;28;20446;-62
2024/02/03 06:22:24;;;;;;;56.37;51.87;;;;;;;;;;4208410;28;20071;-71
2024/02/03 06:24:26;;;;;;;52.90;49.23;;;;;;;;;;4210321;28;20044;-63
2024/02/03 06:26:30;;;;;;;53.35;49.55;;;;;;;;;;4210203;28;20127;-63
2024/02/03 06:28:32;;;;;;;54.75;50.80;;;;;;;;;;4213032;28;20093;-63
2024/02/03 06:30:33;;;;;;;55.95;52.03;;;;;;;;;;4213559;28;20044;-63
2024/02/03 06:32:35;;;;;;;55.78;51.88;;;;;;;;;;4213875;28;20054;-63
2024/02/03 06:34:37;;;;;;;56.30;52.13;;;;;;;;;;4213439;28;20036;-63
2024/02/03 06:36:39;;;;;;;53.17;49.55;;;;;;;;;;4214067;28;20773;-63
2024/02/03 06:38:41;;;;;;;50.97;47.58;;;;;;;;;;4213908;28;20040;-63
2024/02/03 06:40:42;;;;;;;56.57;53.17;;;;;;;;;;4214054;28;20145;-63
2024/02/03 06:42:44;;;;;;;57.20;53.50;;;;;;;;;;4208367;28;20041;-63
2024/02/03 06:44:46;;;;;;;56.38;52.38;;;;;;;;;;4212569;28;20278;-63
2024/02/03 06:46:52;;;;;;;51.20;48.22;;;;;;;;;;4214078;28;20040;-63
2024/02/03 06:48:53;;;;;;;51.22;48.05;;;;;;;;;;4213897;28;20047;-63
2024/02/03 06:50:55;;;;;;;46.77;44.13;;;;;;;;;;4208440;28;20097;-63
2024/02/03 06:52:57;;;;;;;41.42;39.05;;;;;;;;;;4208149;28;20289;-63
2024/02/03 06:54:58;;;;;;;49.15;46.20;;;;;;;;;;4213214;28;20407;-63
2024/02/03 06:57:00;;;;;;;47.05;44.63;;;;;;;;;;4210047;28;20046;-63
2024/02/03 06:59:02;;;;;;;47.78;45.40;;;;;;;;;;4211428;28;20032;-63
2024/02/03 07:01:03;;;;;;;50.93;47.93;;;;;;;;;;4213932;28;20032;-63
2024/02/03 07:03:06;;;;;;;44.65;42.28;;;;;;;;;;4214139;28;20441;-63
2024/02/03 07:05:07;;;;;;;47.13;44.13;;;;;;;;;;4207290;28;20037;-63
2024/02/03 07:07:11;;;;;;;49.40;46.63;;;;;;;;;;4210390;28;20063;-63
2024/02/03 07:09:13;;;;;;;45.53;43.13;;;;;;;;;;4214065;28;20048;-63
2024/02/03 07:11:15;;;;;;;45.20;42.80;;;;;;;;;;4213830;28;20286;-63
2024/02/03 07:13:16;;;;;;;46.85;43.95;;;;;;;;;;4207292;28;20052;-63
2024/02/03 07:15:18;;;;;;;45.87;43.30;;;;;;;;;;4213996;28;20044;-63
2024/02/03 07:17:23;;;;;;;47.67;44.85;;;;;;;;;;4206143;28;20047;-63
2024/02/03 07:19:25;;;;;;;55.35;51.60;;;;;;;;;;4207833;28;20442;-63
2024/02/03 07:21:27;;;;;;;60.50;56.13;;;;;;;;;;4208030;28;20097;-63
2024/02/03 07:23:29;;;;;;;57.43;53.50;;;;;;;;;;4213736;28;20495;-63
2024/02/03 07:25:31;;;;;;;49.03;46.13;;;;;;;;;;4208614;28;20409;-63
2024/02/03 07:27:33;;;;;;;61.45;56.25;;;;;;;;;;4210204;28;20346;-63
2024/02/03 07:29:35;;;;;;;61.25;56.38;;;;;;;;;;4207340;28;20044;-63
2024/02/03 07:31:36;;;;;;;61.45;56.45;;;;;;;;;;4211518;28;20534;-63
2024/02/03 07:33:38;;;;;;;64.77;58.93;;;;;;;;;;4204522;28;20127;-63
2024/02/03 07:35:40;;;;;;;66.97;61.00;;;;;;;;;;4198716;28;20052;-63
2024/02/03 07:37:42;;;;;;;;;;;;;;;;;;4207366;28;20112;-63
2024/02/03 07:39:44;;;;;;;67.22;62.33;;;;;;;;;;4206409;28;19927;-63
2024/02/03 07:41:46;;;;;;;63.30;57.63;;;;;;;;;;4212268;28;20028;-63
2024/02/03 07:43:47;;;;;;;67.10;61.60;;;;;;;;;;4211975;28;20446;-63
2024/02/03 07:45:49;;;;;;;68.18;62.35;;;;;;;;;;4216098;28;20121;-63
2024/02/03 07:47:51;;;;;;;62.65;57.85;;;;;;;;;;4216756;28;20091;-63
2024/02/03 07:49:53;;;;;;;64.57;59.20;;;;;;;;;;4214591;28;20553;-63
2024/02/03 07:51:55;;;;;;;61.78;56.67;;;;;;;;;;4216343;28;20404;-63
2024/02/03 07:53:59;;;;;;;63.90;58.25;;;;;;;;;;4210974;28;20032;-63
2024/02/03 07:56:01;;;;;;;48.13;45.20;;;;;;;;;;4198686;28;20382;-63
2024/02/03 07:58:03;;;;;;;48.90;45.95;;;;;;;;;;4209210;28;20058;-63
2024/02/03 08:00:05;;;;;;;60.55;56.20;;;;;;;;;;4216517;28;20059;-63
2024/02/03 08:02:07;;;;;;;64.35;59.00;;;;;;;;;;4216395;28;20059;-63
2024/02/03 08:04:08;;;;;;;64.68;59.05;;;;;;;;;;4216809;28;20078;-63
2024/02/03 08:06:11;;;;;;;59.45;54.38;;;;;;;;;;4216578;28;20113;-61
2024/02/03 08:08:13;;;;;;;63.33;57.70;;;;;;;;;;4216556;28;20042;-61
2024/02/03 08:10:14;;;;;;;68.20;61.70;;;;;;;;;;4216542;28;20040;-61
2024/02/03 08:12:16;;;;;;;62.97;57.50;;;;;;;;;;4216367;28;20055;-61
2024/02/03 08:14:17;;;;;;;63.50;58.15;;;;;;;;;;4216455;28;20118;-60
2024/02/03 08:16:19;;;;;;;59.03;54.25;;;;;;;;;;4216222;28;20511;-60
2024/02/03 08:18:21;;;;;;;59.63;54.42;;;;;;;;;;4216162;28;20040;-61
2024/02/03 08:20:23;;;;;;;50.17;46.78;;;;;;;;;;4216440;28;20036;-61
2024/02/03 08:22:25;;;;;;;51.17;47.20;;;;;;;;;;4216168;28;20040;-61
2024/02/03 08:24:27;;;;;;;48.72;45.45;;;;;;;;;;4213134;28;20122;-61
2024/02/03 08:26:29;;;;;;;45.03;42.37;;;;;;;;;;4199311;28;20496;-61
2024/02/03 08:28:30;;;;;;;44.50;42.00;;;;;;;;;;4199315;28;20421;-62
2024/02/03 08:30:37;;;;;;;47.42;43.92;;;;;;;;;;4198640;28;20116;-61
2024/02/03 08:32:39;;;;;;;50.70;47.08;;;;;;;;;;4201606;28;20093;-62
2024/02/03 08:34:40;;;;;;;44.50;41.33;;;;;;;;;;4200337;28;20111;-61
2024/02/03 08:37:02;;;;;;;46.88;43.55;;;;;;;;;;4207899;28;20121;-61
2024/02/03 08:39:04;;;;;;;47.03;44.03;;;;;;;;;;4210055;28;20056;-61
2024/02/03 08:41:07;;;;;;;59.23;54.10;;;;;;;;;;4210034;28;20333;-62
2024/02/03 08:43:09;;;;;;;67.22;60.30;;;;;;;;;;4211803;28;20040;-61
2024/02/03 08:45:11;;;;;;;58.33;53.75;;;;;;;;;;4210387;28;20028;-60
2024/02/03 08:47:13;;;;;;;70.15;63.47;;;;;;;;;;4212294;28;20040;-62
2024/02/03 08:49:14;;;;;;;65.47;58.83;;;;;;;;;;4214565;28;20036;-62
2024/02/03 08:51:17;;;;;;;61.97;57.00;;;;;;;;;;4214196;28;20044;-61
2024/02/03 08:53:18;;;;;;;53.83;50.08;;;;;;;;;;4201594;28;20040;-61
2024/02/03 08:55:20;;;;;;;53.50;49.22;;;;;;;;;;4198768;28;20063;-61
2024/02/03 08:57:22;;;;;;;52.63;48.67;;;;;;;;;;4201764;28;20434;-61
2024/02/03 08:59:23;;;;;;;55.28;50.55;;;;;;;;;;4215631;28;20518;-61
2024/02/03 09:01:25;;;;;;;46.97;43.87;;;;;;;;;;4215780;28;20105;-61
2024/02/03 09:03:27;;;;;;;50.58;47.40;;;;;;;;;;4215584;28;20122;-61
2024/02/03 09:05:29;;;;;;;54.90;51.27;;;;;;;;;;4215712;28;20511;-61
2024/02/03 09:07:34;;;;;;;47.22;44.22;;;;;;;;;;4215410;28;20293;-61
2024/02/03 09:09:36;;;;;;;39.10;37.22;;;;;;;;;;4215440;28;20043;-62
2024/02/03 09:11:38;;;;;;;34.50;32.83;;;;;;;;;;4215408;28;20041;-61
2024/02/03 09:13:39;;;;;;;37.15;35.58;;;;;;;;;;4215748;28;20093;-61
2024/02/03 09:15:41;;;;;;;44.58;41.33;;;;;;;;;;4215577;28;20085;-61
2024/02/03 09:17:43;;;;;;;52.67;48.97;;;;;;;;;;4214123;28;20082;-63
2024/02/03 09:19:44;;;;;;;45.25;42.03;;;;;;;;;;4215030;28;20042;-63
2024/02/03 09:21:47;;;;;;;41.33;38.90;;;;;;;;;;4215291;28;20123;-64
2024/02/03 09:23:49;;;;;;;46.95;43.47;;;;;;;;;;4215150;28;20043;-63
2024/02/03 09:25:53;;;;;;;43.78;40.67;;;;;;;;;;4215178;28;20102;-63
2024/02/03 09:27:55;;;;;;;44.13;41.17;;;;;;;;;;4215126;28;20044;-64
2024/02/03 09:29:57;;;;;;;41.13;38.63;;;;;;;;;;4215032;28;20048;-64
2024/02/03 09:31:58;;;;;;;33.83;32.57;;;;;;;;;;4212113;28;20052;-64
2024/02/03 09:34:04;;;;;;;32.58;31.45;;;;;;;;;;4207805;28;20037;-64
2024/02/03 09:36:07;;;;;;;27.77;27.08;;;;;;;;;;4202509;28;20079;-64
2024/02/03 09:38:08;;;;;;;31.00;29.50;;;;;;;;;;4211823;28;20086;-64
2024/02/03 09:40:17;;;;;;;39.65;36.97;;;;;;;;;;4209930;28;20056;-63
2024/02/03 09:42:18;;;;;;;35.15;33.30;;;;;;;;;;4214060;28;20074;-64
2024/02/03 09:44:21;;;;;;;32.33;30.73;;;;;;;;;;4212449;28;20094;-64
2024/02/03 09:46:22;;;;;;;32.22;30.85;;;;;;;;;;4212119;28;20075;-63
2024/02/03 09:48:24;;;;;;;36.90;34.63;;;;;;;;;;4206902;28;20492;-63
2024/02/03 09:50:26;;;;;;;39.95;36.83;;;;;;;;;;4200587;28;20047;-63
2024/02/03 09:52:29;;;;;;;35.67;33.38;;;;;;;;;;4210486;28;20075;-63
2024/02/03 09:54:31;;;;;;;39.10;36.08;;;;;;;;;;4213487;28;20156;-63
2024/02/03 09:56:32;;;;;;;36.97;34.13;;;;;;;;;;4213430;28;20054;-64
2024/02/03 09:58:34;;;;;;;34.30;32.40;;;;;;;;;;4213331;28;20040;-64
2024/02/03 10:00:36;;;;;;;34.58;32.50;;;;;;;;;;4212698;28;20036;-64
2024/02/03 10:02:39;;;;;;;34.78;32.10;;;;;;;;;;4214511;28;20570;-63
2024/02/03 10:04:43;;;;;;;39.05;36.00;;;;;;;;;;4211909;28;20468;-63
2024/02/03 10:06:47;;;;;;;33.60;31.63;;;;;;;;;;4213840;28;20039;-63
2024/02/03 10:08:50;;;;;;;37.45;34.75;;;;;;;;;;4210118;28;20044;-63
2024/02/03 10:10:52;;;;;;;39.47;36.55;;;;;;;;;;4207493;28;20040;-63
2024/02/03 10:13:03;;;;;;;28.17;26.77;;;;;;;;;;4211756;28;20047;-64
2024/02/03 10:15:05;;;;;;;30.20;28.33;;;;;;;;;;4207704;28;20094;-64
2024/02/03 10:17:08;;;;;;;31.10;29.15;;;;;;;;;;4212061;28;20085;-63
2024/02/03 10:19:09;;;;;;;29.70;28.10;;;;;;;;;;4214040;28;20067;-64
2024/02/03 10:21:11;;;;;;;25.07;23.47;;;;;;;;;;4213513;28;20035;-63
2024/02/03 10:23:13;;;;;;;29.05;26.40;;;;;;;;;;4212209;28;20500;-64
2024/02/03 10:25:15;;;;;;;25.40;23.10;;;;;;;;;;4212135;28;20102;-64
2024/02/03 10:27:23;;;;;;;15.75;14.85;;;;;;;;;;4212804;28;20036;-64
2024/02/03 10:29:25;;;;;;;20.25;18.60;;;;;;;;;;4210762;28;20113;-63
2024/02/03 10:31:27;;;;;;;10.73;10.25;;;;;;;;;;4207065;28;20817;-63
2024/02/03 10:33:28;;;;;;;8.50;8.30;;;;;;;;;;4210107;28;20395;-64
2024/02/03 10:35:31;;;;;;;12.80;12.50;;;;;;;;;;4204704;28;20040;-63
2024/02/03 10:37:33;;;;;;;;;;;;;;;;;;4209246;28;20040;-63
2024/02/03 10:39:34;;;;;;;13.73;13.25;;;;;;;;;;4207731;28;19990;-63
2024/02/03 10:41:38;;;;;;;12.93;12.37;;;;;;;;;;4212065;28;20036;-63
2024/02/03 10:43:41;;;;;;;16.48;15.63;;;;;;;;;;4213676;28;20036;-63
2024/02/03 10:45:43;;;;;;;15.95;15.43;;;;;;;;;;4210174;28;20067;-63
2024/02/03 10:47:45;;;;;;;;;;;;;;;;;;4213925;28;20036;-63
2024/02/03 10:49:47;;;;;;;13.32;13.05;;;;;;;;;;4208585;28;20473;-63
2024/02/03 10:51:50;;;;;;;12.27;11.70;;;;;;;;;;4204290;28;20067;-63
2024/02/03 10:53:55;;;;;;;10.85;10.43;;;;;;;;;;4211645;28;20365;-63
2024/02/03 10:55:59;;;;;;;9.18;8.90;;;;;;;;;;4213694;28;20036;-63
2024/02/03 10:58:02;;;;;;;10.32;10.13;;;;;;;;;;4213560;28;20044;-63
2024/02/03 11:00:07;;;;;;;14.60;14.00;;;;;;;;;;4211176;28;20124;-63
2024/02/03 11:02:18;;;;;;;10.82;10.60;;;;;;;;;;4212606;28;20055;-63
2024/02/03 11:04:20;;;;;;;11.90;11.35;;;;;;;;;;4214190;28;20438;-64
2024/02/03 11:06:32;;;;;;;10.00;9.60;;;;;;;;;;4220142;28;20052;-64
2024/02/03 11:08:34;;;;;;;10.60;10.15;;;;;;;;;;4196498;28;20048;-63
2024/02/03 11:10:37;;;;;;;9.73;8.85;;;;;;;;;;4207081;28;21693;-64
2024/02/03 11:12:39;;;;;;;9.95;9.55;;;;;;;;;;4204953;28;20119;-64
2024/02/03 11:14:42;;;;;;;10.10;9.80;;;;;;;;;;4207767;28;20599;-64
2024/02/03 11:17:05;;;;;;;10.82;9.80;;;;;;;;;;4210645;28;20154;-64
2024/02/03 11:19:16;;;;;;;9.52;9.10;;;;;;;;;;4208141;28;20040;-64
2024/02/03 11:21:25;;;;;;;8.52;8.02;;;;;;;;;;4211509;28;20032;-63
2024/02/03 11:23:27;;;;;;;7.65;7.45;;;;;;;;;;4211960;28;20040;-64
2024/02/03 11:25:28;;;;;;;7.27;6.67;;;;;;;;;;4215972;28;20075;-63
2024/02/03 11:27:31;;;;;;;7.47;7.28;;;;;;;;;;4216169;28;20090;-63
2024/02/03 11:29:33;;;;;;;7.72;7.53;;;;;;;;;;4215140;28;20408;-63
2024/02/03 11:31:35;;;;;;;9.65;9.35;;;;;;;;;;4212309;28;20063;-64
2024/02/03 11:33:40;;;;;;;8.40;7.82;;;;;;;;;;4211278;28;20458;-63
2024/02/03 11:35:43;;;;;;;7.05;6.72;;;;;;;;;;4213230;28;20048;-63
2024/02/03 11:37:45;;;;;;;8.23;7.93;;;;;;;;;;4216596;28;20046;-62
2024/02/03 11:39:46;;;;;;;9.07;8.68;;;;;;;;;;4211466;28;20086;-62
2024/02/03 11:41:51;;;;;;;9.43;9.15;;;;;;;;;;4210457;28;20035;-61
2024/02/03 11:43:53;;;;;;;9.98;9.52;;;;;;;;;;4202501;28;20400;-61
2024/02/03 11:45:58;;;;;;;10.30;10.00;;;;;;;;;;4208859;28;20071;-62
2024/02/03 11:48:02;;;;;;;10.93;10.63;;;;;;;;;;4209759;28;20040;-62
2024/02/03 11:50:04;;;;;;;10.02;9.63;;;;;;;;;;4212718;28;20036;-61
2024/02/03 11:52:06;;;;;;;11.05;10.55;;;;;;;;;;4208586;28;20036;-62
2024/02/03 11:54:08;;;;;;;10.47;9.97;;;;;;;;;;4211374;28;20101;-62
2024/02/03 11:56:09;;;;;;;10.20;9.85;;;;;;;;;;4199627;28;20857;-62